Главная страница
METAR-TAF:

METAR-TAF

Аэропорты :

Порт-оф-Спейн, Trinidad, Тринидад и Тобаго

широта: 10-37N, долгота: 061-21W, высота над уровнем моря: 12 м

Текущие метеонаблюдения

Эта сводка был подготовлена 53 минут назад, в 07:00 UTC
Ветер 3 Узел от восточно-юго-восточный
Температура 24°C
Влажность 94%
Давление 1012 hPa
Видимость 10 км и более
небольшая облачность на высоте 1600 фута

METAR: TTPP 140700Z 12003KT 9999 FEW016 24/23 Q1012 NOSIG

Время: 03:53 (07:53 UTC)

Прогноз

Эта сводка был подготовлена 3 часа и 53 минут назад, в 04:00 UTC
Прогноз действительный с 14-го 06 UTC до 15-го 06 UTC
Ветер Узел от северный
Видимость 10 км и более
небольшая облачность на высоте 1600 фута
изменения
С 14-го 12 UTC до 14-го 14 UTC
Ветер 15 Узел от восточный
Отдельные облака на высоте 2000 фута
изменения
С 14-го 23 UTC до 15-го 02 UTC
Ветер 5 Узел от восточный

TAF: TTPP 140400Z 1406/1506 00000KT 9999 FEW016 BECMG 1412/1414 10015KT SCT020 BECMG 1423/1502 10005KT

Метеонаблюдения и прогнозы для более 4000 аэропортов (сводки METAR и TAF).

Имеющиеся станции представлены на карте желтыми и красными точками.

Чтобы увидеть название станции, наведите на нее мышь.

Затем щелкните, чтобы увидеть метеонаблюдения и метеопрогнозы.

Управление картой: чтобы увеличить масштаб, щелкните зеленые кнопки с черным крестиком; чтобы уменьшить масштаб, щелкните зеленую кнопку с тире; для просмотра соседних карт щелкайте зеленые стрелки.


METAR-TAF: